EPRA

Radom Military Air Base Airport

Poland
METAR EPRA 201400Z 33007KT 290V360 CAVOK 25/15 Q1010
Observed Flight Rules
Jul-20 @ 14:00 UTC (40 minutes ago) Visual Flight Rules
Wind Visibility Clouds
330° at 7 knots 10,000+ meters
  • Clear skies
Temperatures Readings
Current 25°C / 77°F
Dewpoint 15°C / 59°F
Humidity 54%
Altimeter 29.82" Hg
Pressure 1010 hPa
Elevation 178
METAR EPRA 201400Z 33007KT 290V360 CAVOK 25/15 Q1010
Observed Flight Rules
Jul-20 @ 14:00 UTC
(40 minutes ago)
VFR
Wind Visibility
330° at 7 knots 10,000+ meters
Clouds
  • Clear skies
Temperature Dewpoint
25°C / 77°F 15°C / 59°F
Humidity Altimeter Pressure
54% 29.82" Hg 1010 hPa